sensor_id;sensor_type;location;lat;lon;timestamp;P1;durP1;ratioP1;P2;durP2;ratioP2
57643;SDS011;43474;46.510;6.686;2023-03-31T00:00:52;134.98;;;128.35;;
57643;SDS011;43474;46.510;6.686;2023-03-31T00:03:18;133.20;;;126.53;;
57643;SDS011;43474;46.510;6.686;2023-03-31T00:05:49;130.38;;;123.72;;
57643;SDS011;43474;46.510;6.686;2023-03-31T00:08:19;127.03;;;120.78;;
57643;SDS011;43474;46.510;6.686;2023-03-31T00:10:45;123.78;;;117.75;;
57643;SDS011;43474;46.510;6.686;2023-03-31T00:13:12;121.60;;;115.63;;
57643;SDS011;43474;46.510;6.686;2023-03-31T00:15:38;123.70;;;117.82;;
57643;SDS011;43474;46.510;6.686;2023-03-31T00:18:04;130.82;;;124.57;;
57643;SDS011;43474;46.510;6.686;2023-03-31T00:20:30;131.10;;;124.50;;
57643;SDS011;43474;46.510;6.686;2023-03-31T00:23:02;134.57;;;127.80;;
57643;SDS011;43474;46.510;6.686;2023-03-31T00:25:34;134.20;;;127.90;;
57643;SDS011;43474;46.510;6.686;2023-03-31T00:28:03;131.30;;;124.75;;
57643;SDS011;43474;46.510;6.686;2023-03-31T00:30:28;137.05;;;130.60;;
57643;SDS011;43474;46.510;6.686;2023-03-31T00:32:54;137.50;;;131.15;;
57643;SDS011;43474;46.510;6.686;2023-03-31T00:35:20;137.77;;;130.77;;
57643;SDS011;43474;46.510;6.686;2023-03-31T00:37:46;141.40;;;134.40;;
57643;SDS011;43474;46.510;6.686;2023-03-31T00:40:12;139.85;;;133.15;;
57643;SDS011;43474;46.510;6.686;2023-03-31T00:42:41;143.52;;;136.43;;
57643;SDS011;43474;46.510;6.686;2023-03-31T00:47:39;148.90;;;141.82;;
57643;SDS011;43474;46.510;6.686;2023-03-31T00:50:14;154.43;;;146.90;;
57643;SDS011;43474;46.510;6.686;2023-03-31T00:52:44;154.30;;;146.98;;
57643;SDS011;43474;46.510;6.686;2023-03-31T00:55:16;155.13;;;147.02;;
57643;SDS011;43474;46.510;6.686;2023-03-31T00:57:46;158.23;;;150.65;;
57643;SDS011;43474;46.510;6.686;2023-03-31T01:00:14;159.20;;;151.52;;
57643;SDS011;43474;46.510;6.686;2023-03-31T01:02:44;161.27;;;153.77;;
57643;SDS011;43474;46.510;6.686;2023-03-31T01:08:09;166.23;;;158.23;;
57643;SDS011;43474;46.510;6.686;2023-03-31T01:10:36;164.15;;;156.25;;
57643;SDS011;43474;46.510;6.686;2023-03-31T01:13:09;165.13;;;156.95;;
57643;SDS011;43474;46.510;6.686;2023-03-31T01:15:37;166.40;;;158.73;;
57643;SDS011;43474;46.510;6.686;2023-03-31T01:18:04;165.27;;;157.43;;
57643;SDS011;43474;46.510;6.686;2023-03-31T01:20:40;166.93;;;159.18;;
57643;SDS011;43474;46.510;6.686;2023-03-31T01:46:52;183.75;;;175.15;;
57643;SDS011;43474;46.510;6.686;2023-03-31T01:49:29;183.23;;;174.32;;
57643;SDS011;43474;46.510;6.686;2023-03-31T01:52:05;184.32;;;175.32;;
57643;SDS011;43474;46.510;6.686;2023-03-31T01:54:52;184.32;;;175.70;;
57643;SDS011;43474;46.510;6.686;2023-03-31T01:57:38;186.05;;;177.07;;
57643;SDS011;43474;46.510;6.686;2023-03-31T02:00:11;189.82;;;180.98;;
57643;SDS011;43474;46.510;6.686;2023-03-31T02:05:23;186.68;;;177.77;;
57643;SDS011;43474;46.510;6.686;2023-03-31T02:07:53;182.07;;;172.90;;
57643;SDS011;43474;46.510;6.686;2023-03-31T02:10:23;174.52;;;165.80;;
57643;SDS011;43474;46.510;6.686;2023-03-31T02:12:51;169.48;;;161.40;;
57643;SDS011;43474;46.510;6.686;2023-03-31T02:15:20;156.90;;;149.48;;
57643;SDS011;43474;46.510;6.686;2023-03-31T02:20:18;159.10;;;151.32;;
57643;SDS011;43474;46.510;6.686;2023-03-31T02:22:51;149.40;;;142.13;;
57643;SDS011;43474;46.510;6.686;2023-03-31T02:25:21;148.77;;;141.30;;
57643;SDS011;43474;46.510;6.686;2023-03-31T02:27:52;154.85;;;147.32;;
57643;SDS011;43474;46.510;6.686;2023-03-31T02:30:25;163.05;;;155.05;;
57643;SDS011;43474;46.510;6.686;2023-03-31T02:32:59;173.18;;;164.88;;
57643;SDS011;43474;46.510;6.686;2023-03-31T02:35:24;186.10;;;177.38;;
57643;SDS011;43474;46.510;6.686;2023-03-31T02:37:50;190.45;;;181.57;;
57643;SDS011;43474;46.510;6.686;2023-03-31T02:40:20;191.82;;;182.80;;
57643;SDS011;43474;46.510;6.686;2023-03-31T02:42:47;195.82;;;186.43;;
57643;SDS011;43474;46.510;6.686;2023-03-31T02:48:22;207.52;;;197.98;;
57643;SDS011;43474;46.510;6.686;2023-03-31T02:59:54;211.80;;;202.05;;
57643;SDS011;43474;46.510;6.686;2023-03-31T03:05:24;206.07;;;196.25;;
57643;SDS011;43474;46.510;6.686;2023-03-31T03:10:41;220.85;;;210.57;;
57643;SDS011;43474;46.510;6.686;2023-03-31T03:13:27;226.95;;;216.68;;
57643;SDS011;43474;46.510;6.686;2023-03-31T03:15:55;224.90;;;214.55;;
57643;SDS011;43474;46.510;6.686;2023-03-31T03:18:27;222.52;;;212.40;;
57643;SDS011;43474;46.510;6.686;2023-03-31T03:20:53;221.18;;;211.10;;
57643;SDS011;43474;46.510;6.686;2023-03-31T03:23:19;220.27;;;209.82;;
57643;SDS011;43474;46.510;6.686;2023-03-31T03:25:45;213.05;;;203.38;;
57643;SDS011;43474;46.510;6.686;2023-03-31T03:28:11;208.60;;;199.02;;
57643;SDS011;43474;46.510;6.686;2023-03-31T03:30:36;196.80;;;187.10;;
57643;SDS011;43474;46.510;6.686;2023-03-31T03:33:02;188.32;;;179.43;;
57643;SDS011;43474;46.510;6.686;2023-03-31T03:35:30;179.40;;;170.93;;
57643;SDS011;43474;46.510;6.686;2023-03-31T03:37:59;174.95;;;166.68;;
57643;SDS011;43474;46.510;6.686;2023-03-31T03:40:25;171.48;;;162.82;;
57643;SDS011;43474;46.510;6.686;2023-03-31T03:42:50;168.48;;;160.50;;
57643;SDS011;43474;46.510;6.686;2023-03-31T03:45:16;164.85;;;157.25;;
57643;SDS011;43474;46.510;6.686;2023-03-31T03:47:42;157.77;;;150.23;;
57643;SDS011;43474;46.510;6.686;2023-03-31T03:50:07;152.55;;;145.00;;
57643;SDS011;43474;46.510;6.686;2023-03-31T03:52:34;146.75;;;139.77;;
57643;SDS011;43474;46.510;6.686;2023-03-31T03:55:00;146.07;;;138.82;;
57643;SDS011;43474;46.510;6.686;2023-03-31T03:57:26;132.73;;;126.50;;
57643;SDS011;43474;46.510;6.686;2023-03-31T03:59:52;136.15;;;129.43;;
57643;SDS011;43474;46.510;6.686;2023-03-31T04:02:17;126.93;;;120.80;;
57643;SDS011;43474;46.510;6.686;2023-03-31T04:04:43;122.97;;;117.00;;
57643;SDS011;43474;46.510;6.686;2023-03-31T04:07:09;114.80;;;109.10;;
57643;SDS011;43474;46.510;6.686;2023-03-31T04:09:35;109.80;;;104.47;;
57643;SDS011;43474;46.510;6.686;2023-03-31T04:12:01;97.22;;;92.40;;
57643;SDS011;43474;46.510;6.686;2023-03-31T04:14:26;89.03;;;84.57;;
57643;SDS011;43474;46.510;6.686;2023-03-31T04:16:52;86.38;;;82.18;;
57643;SDS011;43474;46.510;6.686;2023-03-31T04:19:21;93.97;;;89.03;;
57643;SDS011;43474;46.510;6.686;2023-03-31T04:21:50;95.97;;;90.22;;
57643;SDS011;43474;46.510;6.686;2023-03-31T04:24:25;92.90;;;88.28;;
57643;SDS011;43474;46.510;6.686;2023-03-31T04:26:55;89.85;;;85.32;;
57643;SDS011;43474;46.510;6.686;2023-03-31T04:29:22;88.07;;;83.72;;
57643;SDS011;43474;46.510;6.686;2023-03-31T04:31:54;90.13;;;85.65;;
57643;SDS011;43474;46.510;6.686;2023-03-31T04:34:23;93.32;;;88.43;;
57643;SDS011;43474;46.510;6.686;2023-03-31T04:36:59;89.18;;;84.78;;
57643;SDS011;43474;46.510;6.686;2023-03-31T04:39:27;89.20;;;84.45;;
57643;SDS011;43474;46.510;6.686;2023-03-31T04:41:55;88.88;;;84.78;;
57643;SDS011;43474;46.510;6.686;2023-03-31T04:44:24;88.15;;;83.70;;
57643;SDS011;43474;46.510;6.686;2023-03-31T04:46:50;85.90;;;81.57;;
57643;SDS011;43474;46.510;6.686;2023-03-31T04:49:16;87.28;;;82.93;;
57643;SDS011;43474;46.510;6.686;2023-03-31T04:51:41;85.00;;;80.70;;
57643;SDS011;43474;46.510;6.686;2023-03-31T04:54:07;85.95;;;81.40;;
57643;SDS011;43474;46.510;6.686;2023-03-31T04:56:32;85.07;;;80.60;;
57643;SDS011;43474;46.510;6.686;2023-03-31T04:58:58;85.57;;;81.30;;
57643;SDS011;43474;46.510;6.686;2023-03-31T05:01:24;82.93;;;78.57;;
57643;SDS011;43474;46.510;6.686;2023-03-31T05:03:49;82.88;;;78.53;;
57643;SDS011;43474;46.510;6.686;2023-03-31T05:06:15;79.45;;;75.38;;
57643;SDS011;43474;46.510;6.686;2023-03-31T05:08:42;80.18;;;76.35;;
57643;SDS011;43474;46.510;6.686;2023-03-31T05:11:08;76.53;;;72.72;;
57643;SDS011;43474;46.510;6.686;2023-03-31T05:13:34;77.28;;;73.40;;
57643;SDS011;43474;46.510;6.686;2023-03-31T05:16:09;75.32;;;71.50;;
57643;SDS011;43474;46.510;6.686;2023-03-31T05:18:39;74.90;;;70.93;;
57643;SDS011;43474;46.510;6.686;2023-03-31T05:23:37;82.75;;;78.68;;
57643;SDS011;43474;46.510;6.686;2023-03-31T05:26:02;81.55;;;77.18;;
57643;SDS011;43474;46.510;6.686;2023-03-31T05:28:29;84.68;;;80.53;;
57643;SDS011;43474;46.510;6.686;2023-03-31T05:30:54;97.07;;;92.60;;
57643;SDS011;43474;46.510;6.686;2023-03-31T05:33:23;103.28;;;98.32;;
57643;SDS011;43474;46.510;6.686;2023-03-31T05:35:48;114.00;;;108.25;;
57643;SDS011;43474;46.510;6.686;2023-03-31T05:38:14;123.05;;;116.95;;
57643;SDS011;43474;46.510;6.686;2023-03-31T05:40:40;123.20;;;117.25;;
57643;SDS011;43474;46.510;6.686;2023-03-31T05:43:05;156.38;;;149.00;;
57643;SDS011;43474;46.510;6.686;2023-03-31T05:45:31;125.72;;;119.57;;
57643;SDS011;43474;46.510;6.686;2023-03-31T05:47:57;127.07;;;120.78;;
57643;SDS011;43474;46.510;6.686;2023-03-31T05:50:22;160.18;;;151.10;;
57643;SDS011;43474;46.510;6.686;2023-03-31T05:52:48;140.88;;;134.13;;
57643;SDS011;43474;46.510;6.686;2023-03-31T05:55:13;153.70;;;146.73;;
57643;SDS011;43474;46.510;6.686;2023-03-31T05:57:39;163.82;;;155.63;;
57643;SDS011;43474;46.510;6.686;2023-03-31T06:00:05;173.02;;;165.10;;
57643;SDS011;43474;46.510;6.686;2023-03-31T06:02:33;174.02;;;165.70;;
57643;SDS011;43474;46.510;6.686;2023-03-31T06:04:59;177.88;;;168.68;;
57643;SDS011;43474;46.510;6.686;2023-03-31T06:07:25;186.85;;;178.13;;
57643;SDS011;43474;46.510;6.686;2023-03-31T06:09:50;196.23;;;187.05;;
57643;SDS011;43474;46.510;6.686;2023-03-31T06:12:16;193.15;;;184.32;;
57643;SDS011;43474;46.510;6.686;2023-03-31T06:14:42;173.45;;;165.05;;
57643;SDS011;43474;46.510;6.686;2023-03-31T06:17:07;211.68;;;201.15;;
57643;SDS011;43474;46.510;6.686;2023-03-31T06:19:33;177.02;;;168.68;;
57643;SDS011;43474;46.510;6.686;2023-03-31T06:21:58;236.23;;;224.43;;
57643;SDS011;43474;46.510;6.686;2023-03-31T06:24:24;194.77;;;185.63;;
57643;SDS011;43474;46.510;6.686;2023-03-31T06:26:50;173.55;;;165.48;;
57643;SDS011;43474;46.510;6.686;2023-03-31T06:29:15;151.45;;;144.30;;
57643;SDS011;43474;46.510;6.686;2023-03-31T06:31:41;158.25;;;150.82;;
57643;SDS011;43474;46.510;6.686;2023-03-31T06:34:06;142.52;;;135.32;;
57643;SDS011;43474;46.510;6.686;2023-03-31T06:36:32;128.45;;;122.07;;
57643;SDS011;43474;46.510;6.686;2023-03-31T06:38:57;121.72;;;115.43;;
57643;SDS011;43474;46.510;6.686;2023-03-31T06:41:23;116.10;;;110.05;;
57643;SDS011;43474;46.510;6.686;2023-03-31T06:43:48;136.43;;;129.57;;
57643;SDS011;43474;46.510;6.686;2023-03-31T06:46:14;120.18;;;114.55;;
57643;SDS011;43474;46.510;6.686;2023-03-31T06:48:40;129.93;;;123.25;;
57643;SDS011;43474;46.510;6.686;2023-03-31T06:51:06;132.15;;;125.28;;
57643;SDS011;43474;46.510;6.686;2023-03-31T06:53:32;124.07;;;117.90;;
57643;SDS011;43474;46.510;6.686;2023-03-31T06:55:59;134.13;;;127.47;;
57643;SDS011;43474;46.510;6.686;2023-03-31T06:58:25;131.93;;;125.57;;
57643;SDS011;43474;46.510;6.686;2023-03-31T07:00:51;141.23;;;134.05;;
57643;SDS011;43474;46.510;6.686;2023-03-31T07:03:17;136.23;;;129.77;;
57643;SDS011;43474;46.510;6.686;2023-03-31T07:05:47;130.32;;;123.93;;
57643;SDS011;43474;46.510;6.686;2023-03-31T07:08:14;144.75;;;137.73;;
57643;SDS011;43474;46.510;6.686;2023-03-31T07:10:42;132.63;;;126.35;;
57643;SDS011;43474;46.510;6.686;2023-03-31T07:13:11;129.52;;;123.03;;
57643;SDS011;43474;46.510;6.686;2023-03-31T07:15:37;126.40;;;119.93;;
57643;SDS011;43474;46.510;6.686;2023-03-31T07:18:03;130.15;;;124.00;;
57643;SDS011;43474;46.510;6.686;2023-03-31T07:20:29;121.22;;;115.10;;
57643;SDS011;43474;46.510;6.686;2023-03-31T07:22:55;117.25;;;111.28;;
57643;SDS011;43474;46.510;6.686;2023-03-31T07:25:21;122.25;;;115.97;;
57643;SDS011;43474;46.510;6.686;2023-03-31T07:27:46;108.65;;;102.95;;
57643;SDS011;43474;46.510;6.686;2023-03-31T07:30:14;102.68;;;97.20;;
57643;SDS011;43474;46.510;6.686;2023-03-31T07:32:41;94.00;;;88.32;;
57643;SDS011;43474;46.510;6.686;2023-03-31T07:35:10;98.45;;;93.00;;
57643;SDS011;43474;46.510;6.686;2023-03-31T07:37:36;93.13;;;87.55;;
57643;SDS011;43474;46.510;6.686;2023-03-31T07:40:03;87.35;;;82.07;;
57643;SDS011;43474;46.510;6.686;2023-03-31T07:42:30;91.43;;;86.43;;
57643;SDS011;43474;46.510;6.686;2023-03-31T07:44:56;85.15;;;80.25;;
57643;SDS011;43474;46.510;6.686;2023-03-31T07:47:22;85.07;;;80.45;;
57643;SDS011;43474;46.510;6.686;2023-03-31T07:49:48;106.85;;;100.93;;
57643;SDS011;43474;46.510;6.686;2023-03-31T07:52:15;87.93;;;82.95;;
57643;SDS011;43474;46.510;6.686;2023-03-31T07:54:41;84.93;;;79.95;;
57643;SDS011;43474;46.510;6.686;2023-03-31T07:57:07;93.30;;;88.07;;
57643;SDS011;43474;46.510;6.686;2023-03-31T07:59:32;113.72;;;107.43;;
57643;SDS011;43474;46.510;6.686;2023-03-31T08:01:58;103.88;;;98.28;;
57643;SDS011;43474;46.510;6.686;2023-03-31T08:04:24;107.30;;;101.43;;
57643;SDS011;43474;46.510;6.686;2023-03-31T08:06:49;107.85;;;102.15;;
57643;SDS011;43474;46.510;6.686;2023-03-31T08:09:16;110.20;;;104.32;;
57643;SDS011;43474;46.510;6.686;2023-03-31T08:11:41;110.68;;;104.60;;
57643;SDS011;43474;46.510;6.686;2023-03-31T08:14:07;113.63;;;107.28;;
57643;SDS011;43474;46.510;6.686;2023-03-31T08:16:33;130.95;;;123.70;;
57643;SDS011;43474;46.510;6.686;2023-03-31T08:18:58;125.78;;;118.95;;
57643;SDS011;43474;46.510;6.686;2023-03-31T08:21:24;123.65;;;117.15;;
57643;SDS011;43474;46.510;6.686;2023-03-31T08:23:52;119.00;;;112.82;;
57643;SDS011;43474;46.510;6.686;2023-03-31T08:26:18;120.00;;;113.40;;
57643;SDS011;43474;46.510;6.686;2023-03-31T08:28:44;128.23;;;121.45;;
57643;SDS011;43474;46.510;6.686;2023-03-31T08:31:12;143.13;;;135.82;;
57643;SDS011;43474;46.510;6.686;2023-03-31T08:33:40;143.82;;;136.50;;
57643;SDS011;43474;46.510;6.686;2023-03-31T08:36:06;155.30;;;147.25;;
57643;SDS011;43474;46.510;6.686;2023-03-31T08:38:35;163.98;;;155.95;;
57643;SDS011;43474;46.510;6.686;2023-03-31T08:41:06;168.75;;;160.38;;
57643;SDS011;43474;46.510;6.686;2023-03-31T08:43:39;164.98;;;155.98;;
57643;SDS011;43474;46.510;6.686;2023-03-31T08:46:12;157.35;;;149.55;;
57643;SDS011;43474;46.510;6.686;2023-03-31T08:48:43;171.68;;;163.20;;
57643;SDS011;43474;46.510;6.686;2023-03-31T08:53:46;154.98;;;146.80;;
57643;SDS011;43474;46.510;6.686;2023-03-31T08:56:19;156.70;;;148.27;;
57643;SDS011;43474;46.510;6.686;2023-03-31T08:58:50;143.45;;;136.10;;
57643;SDS011;43474;46.510;6.686;2023-03-31T09:04:19;136.48;;;128.95;;
57643;SDS011;43474;46.510;6.686;2023-03-31T09:07:11;137.35;;;130.18;;
57643;SDS011;43474;46.510;6.686;2023-03-31T09:12:24;117.93;;;111.53;;
57643;SDS011;43474;46.510;6.686;2023-03-31T09:15:03;106.53;;;100.88;;
57643;SDS011;43474;46.510;6.686;2023-03-31T09:17:40;101.93;;;96.43;;
57643;SDS011;43474;46.510;6.686;2023-03-31T09:20:13;103.70;;;98.05;;
57643;SDS011;43474;46.510;6.686;2023-03-31T09:25:37;113.75;;;107.72;;
57643;SDS011;43474;46.510;6.686;2023-03-31T09:28:07;128.23;;;121.57;;
57643;SDS011;43474;46.510;6.686;2023-03-31T09:30:43;128.70;;;121.78;;
57643;SDS011;43474;46.510;6.686;2023-03-31T09:33:31;133.10;;;126.28;;
57643;SDS011;43474;46.510;6.686;2023-03-31T09:35:58;136.20;;;129.23;;
57643;SDS011;43474;46.510;6.686;2023-03-31T09:38:25;137.48;;;130.77;;
57643;SDS011;43474;46.510;6.686;2023-03-31T09:40:59;145.55;;;138.30;;
57643;SDS011;43474;46.510;6.686;2023-03-31T09:45:59;156.20;;;147.95;;
57643;SDS011;43474;46.510;6.686;2023-03-31T09:48:26;151.90;;;144.40;;
57643;SDS011;43474;46.510;6.686;2023-03-31T09:51:37;182.48;;;173.07;;
57643;SDS011;43474;46.510;6.686;2023-03-31T09:54:30;147.05;;;139.95;;
57643;SDS011;43474;46.510;6.686;2023-03-31T09:56:53;149.20;;;141.48;;
57643;SDS011;43474;46.510;6.686;2023-03-31T10:01:50;147.80;;;140.73;;
57643;SDS011;43474;46.510;6.686;2023-03-31T10:04:19;155.82;;;148.20;;
57643;SDS011;43474;46.510;6.686;2023-03-31T10:06:48;153.98;;;145.77;;
57643;SDS011;43474;46.510;6.686;2023-03-31T10:09:14;174.93;;;166.23;;
57643;SDS011;43474;46.510;6.686;2023-03-31T10:11:50;191.40;;;181.65;;
57643;SDS011;43474;46.510;6.686;2023-03-31T10:14:17;203.52;;;193.25;;
57643;SDS011;43474;46.510;6.686;2023-03-31T10:16:54;192.30;;;182.93;;
57643;SDS011;43474;46.510;6.686;2023-03-31T10:19:28;185.52;;;176.13;;
57643;SDS011;43474;46.510;6.686;2023-03-31T10:21:58;199.88;;;190.18;;
57643;SDS011;43474;46.510;6.686;2023-03-31T10:24:25;173.43;;;164.82;;
57643;SDS011;43474;46.510;6.686;2023-03-31T10:27:00;166.88;;;158.18;;
57643;SDS011;43474;46.510;6.686;2023-03-31T10:29:30;165.48;;;157.30;;
57643;SDS011;43474;46.510;6.686;2023-03-31T10:32:02;153.68;;;146.20;;
57643;SDS011;43474;46.510;6.686;2023-03-31T10:34:29;158.38;;;150.30;;
57643;SDS011;43474;46.510;6.686;2023-03-31T10:36:56;161.90;;;153.80;;
57643;SDS011;43474;46.510;6.686;2023-03-31T10:39:23;171.48;;;162.90;;
57643;SDS011;43474;46.510;6.686;2023-03-31T10:41:56;192.75;;;183.02;;
57643;SDS011;43474;46.510;6.686;2023-03-31T10:44:32;185.45;;;176.20;;
57643;SDS011;43474;46.510;6.686;2023-03-31T10:49:39;199.90;;;189.90;;
57643;SDS011;43474;46.510;6.686;2023-03-31T10:52:25;222.55;;;211.80;;
57643;SDS011;43474;46.510;6.686;2023-03-31T10:54:55;209.07;;;199.00;;
57643;SDS011;43474;46.510;6.686;2023-03-31T10:57:28;219.52;;;207.40;;
57643;SDS011;43474;46.510;6.686;2023-03-31T11:00:05;157.55;;;150.00;;
57643;SDS011;43474;46.510;6.686;2023-03-31T11:05:32;179.40;;;170.75;;
57643;SDS011;43474;46.510;6.686;2023-03-31T11:13:37;213.05;;;201.45;;
57643;SDS011;43474;46.510;6.686;2023-03-31T11:18:35;167.98;;;159.35;;
57643;SDS011;43474;46.510;6.686;2023-03-31T11:29:34;107.93;;;102.60;;
57643;SDS011;43474;46.510;6.686;2023-03-31T11:48:58;79.15;;;75.20;;
57643;SDS011;43474;46.510;6.686;2023-03-31T11:51:30;62.67;;;59.65;;
57643;SDS011;43474;46.510;6.686;2023-03-31T11:54:09;66.80;;;63.40;;
57643;SDS011;43474;46.510;6.686;2023-03-31T11:56:43;75.15;;;71.75;;
57643;SDS011;43474;46.510;6.686;2023-03-31T11:59:10;92.70;;;88.50;;
57643;SDS011;43474;46.510;6.686;2023-03-31T12:04:23;132.70;;;126.78;;
57643;SDS011;43474;46.510;6.686;2023-03-31T12:07:00;157.00;;;150.07;;
57643;SDS011;43474;46.510;6.686;2023-03-31T12:09:37;180.73;;;172.63;;
57643;SDS011;43474;46.510;6.686;2023-03-31T12:12:17;220.32;;;210.68;;
57643;SDS011;43474;46.510;6.686;2023-03-31T12:17:37;250.60;;;239.23;;
57643;SDS011;43474;46.510;6.686;2023-03-31T12:20:11;251.13;;;240.02;;
57643;SDS011;43474;46.510;6.686;2023-03-31T12:22:46;236.43;;;226.13;;
57643;SDS011;43474;46.510;6.686;2023-03-31T12:25:13;223.88;;;214.02;;
57643;SDS011;43474;46.510;6.686;2023-03-31T12:27:44;250.43;;;238.73;;
57643;SDS011;43474;46.510;6.686;2023-03-31T12:32:53;156.30;;;149.25;;
57643;SDS011;43474;46.510;6.686;2023-03-31T12:35:22;132.00;;;126.30;;
57643;SDS011;43474;46.510;6.686;2023-03-31T12:38:07;108.57;;;103.80;;
57643;SDS011;43474;46.510;6.686;2023-03-31T12:43:36;115.50;;;110.47;;
57643;SDS011;43474;46.510;6.686;2023-03-31T12:51:19;103.95;;;99.43;;
57643;SDS011;43474;46.510;6.686;2023-03-31T13:02:19;165.73;;;158.02;;
57643;SDS011;43474;46.510;6.686;2023-03-31T13:04:47;176.82;;;168.93;;
57643;SDS011;43474;46.510;6.686;2023-03-31T13:09:55;159.07;;;152.00;;
57643;SDS011;43474;46.510;6.686;2023-03-31T13:12:22;149.85;;;143.30;;
57643;SDS011;43474;46.510;6.686;2023-03-31T13:14:52;156.85;;;149.85;;
57643;SDS011;43474;46.510;6.686;2023-03-31T13:17:25;159.00;;;151.80;;
57643;SDS011;43474;46.510;6.686;2023-03-31T13:19:54;150.20;;;143.57;;
57643;SDS011;43474;46.510;6.686;2023-03-31T13:22:28;182.65;;;174.45;;
57643;SDS011;43474;46.510;6.686;2023-03-31T13:27:53;151.30;;;144.50;;
57643;SDS011;43474;46.510;6.686;2023-03-31T13:35:38;180.18;;;171.98;;
57643;SDS011;43474;46.510;6.686;2023-03-31T13:38:19;181.23;;;173.05;;
57643;SDS011;43474;46.510;6.686;2023-03-31T13:41:03;174.02;;;165.73;;
57643;SDS011;43474;46.510;6.686;2023-03-31T13:46:30;167.87;;;160.03;;
57643;SDS011;43474;46.510;6.686;2023-03-31T13:52:17;178.45;;;169.75;;
57643;SDS011;43474;46.510;6.686;2023-03-31T13:55:00;162.52;;;155.02;;
57643;SDS011;43474;46.510;6.686;2023-03-31T13:57:55;153.60;;;145.88;;
57643;SDS011;43474;46.510;6.686;2023-03-31T14:09:00;154.68;;;147.75;;
57643;SDS011;43474;46.510;6.686;2023-03-31T14:11:30;196.93;;;188.07;;
57643;SDS011;43474;46.510;6.686;2023-03-31T14:13:57;226.45;;;216.35;;
57643;SDS011;43474;46.510;6.686;2023-03-31T14:16:24;238.40;;;227.63;;
57643;SDS011;43474;46.510;6.686;2023-03-31T14:18:52;225.82;;;215.85;;
57643;SDS011;43474;46.510;6.686;2023-03-31T14:21:30;218.82;;;209.00;;
57643;SDS011;43474;46.510;6.686;2023-03-31T14:29:55;181.70;;;173.48;;
57643;SDS011;43474;46.510;6.686;2023-03-31T14:32:43;201.30;;;191.93;;
57643;SDS011;43474;46.510;6.686;2023-03-31T14:37:47;145.30;;;138.95;;
57643;SDS011;43474;46.510;6.686;2023-03-31T14:40:14;127.57;;;121.85;;
57643;SDS011;43474;46.510;6.686;2023-03-31T14:42:41;107.28;;;102.63;;
57643;SDS011;43474;46.510;6.686;2023-03-31T14:45:15;80.28;;;76.68;;
57643;SDS011;43474;46.510;6.686;2023-03-31T14:47:56;78.80;;;75.15;;
57643;SDS011;43474;46.510;6.686;2023-03-31T14:50:34;91.47;;;87.28;;
57643;SDS011;43474;46.510;6.686;2023-03-31T14:53:00;85.15;;;81.22;;
57643;SDS011;43474;46.510;6.686;2023-03-31T14:55:30;78.72;;;75.03;;
57643;SDS011;43474;46.510;6.686;2023-03-31T14:57:58;70.90;;;67.53;;
57643;SDS011;43474;46.510;6.686;2023-03-31T15:00:27;66.85;;;63.47;;
57643;SDS011;43474;46.510;6.686;2023-03-31T15:02:57;67.70;;;64.38;;
57643;SDS011;43474;46.510;6.686;2023-03-31T15:05:33;63.33;;;60.33;;
57643;SDS011;43474;46.510;6.686;2023-03-31T15:08:01;55.40;;;52.63;;
57643;SDS011;43474;46.510;6.686;2023-03-31T15:10:57;53.72;;;51.45;;
57643;SDS011;43474;46.510;6.686;2023-03-31T15:15:58;58.08;;;55.47;;
57643;SDS011;43474;46.510;6.686;2023-03-31T15:18:25;48.10;;;45.88;;
57643;SDS011;43474;46.510;6.686;2023-03-31T15:20:52;54.22;;;51.72;;
57643;SDS011;43474;46.510;6.686;2023-03-31T15:23:20;107.97;;;102.53;;
57643;SDS011;43474;46.510;6.686;2023-03-31T15:25:53;88.43;;;84.57;;
57643;SDS011;43474;46.510;6.686;2023-03-31T15:28:22;85.07;;;80.90;;
57643;SDS011;43474;46.510;6.686;2023-03-31T15:30:50;78.40;;;74.88;;
57643;SDS011;43474;46.510;6.686;2023-03-31T15:33:21;77.32;;;73.30;;
57643;SDS011;43474;46.510;6.686;2023-03-31T15:35:51;72.05;;;68.78;;
57643;SDS011;43474;46.510;6.686;2023-03-31T15:38:17;75.13;;;71.63;;
57643;SDS011;43474;46.510;6.686;2023-03-31T15:40:43;78.93;;;75.35;;
57643;SDS011;43474;46.510;6.686;2023-03-31T15:43:15;86.70;;;82.40;;
57643;SDS011;43474;46.510;6.686;2023-03-31T15:45:46;89.97;;;85.80;;
57643;SDS011;43474;46.510;6.686;2023-03-31T15:48:16;101.90;;;97.57;;
57643;SDS011;43474;46.510;6.686;2023-03-31T15:50:45;117.75;;;112.40;;
57643;SDS011;43474;46.510;6.686;2023-03-31T15:53:31;111.10;;;106.22;;
57643;SDS011;43474;46.510;6.686;2023-03-31T15:56:01;84.43;;;80.77;;
57643;SDS011;43474;46.510;6.686;2023-03-31T16:01:47;111.00;;;106.25;;
57643;SDS011;43474;46.510;6.686;2023-03-31T16:04:14;109.43;;;104.50;;
57643;SDS011;43474;46.510;6.686;2023-03-31T16:11:44;125.47;;;119.93;;
57643;SDS011;43474;46.510;6.686;2023-03-31T16:14:18;115.22;;;110.22;;
57643;SDS011;43474;46.510;6.686;2023-03-31T16:16:56;119.25;;;113.97;;
57643;SDS011;43474;46.510;6.686;2023-03-31T16:19:26;134.05;;;128.13;;
57643;SDS011;43474;46.510;6.686;2023-03-31T16:21:55;146.93;;;140.38;;
57643;SDS011;43474;46.510;6.686;2023-03-31T16:26:57;158.57;;;151.43;;
57643;SDS011;43474;46.510;6.686;2023-03-31T16:29:25;155.27;;;148.27;;
57643;SDS011;43474;46.510;6.686;2023-03-31T16:31:50;157.05;;;149.98;;
57643;SDS011;43474;46.510;6.686;2023-03-31T16:34:32;159.80;;;152.55;;
57643;SDS011;43474;46.510;6.686;2023-03-31T16:36:57;148.18;;;141.45;;
57643;SDS011;43474;46.510;6.686;2023-03-31T16:39:23;152.60;;;145.68;;
57643;SDS011;43474;46.510;6.686;2023-03-31T16:41:48;167.13;;;159.45;;
57643;SDS011;43474;46.510;6.686;2023-03-31T16:44:14;171.75;;;163.77;;
57643;SDS011;43474;46.510;6.686;2023-03-31T16:46:40;182.43;;;174.30;;
57643;SDS011;43474;46.510;6.686;2023-03-31T16:49:05;171.93;;;164.02;;
57643;SDS011;43474;46.510;6.686;2023-03-31T16:51:31;176.02;;;168.18;;
57643;SDS011;43474;46.510;6.686;2023-03-31T16:53:57;170.85;;;163.15;;
57643;SDS011;43474;46.510;6.686;2023-03-31T16:56:22;177.18;;;169.27;;
57643;SDS011;43474;46.510;6.686;2023-03-31T16:58:48;189.57;;;181.20;;
57643;SDS011;43474;46.510;6.686;2023-03-31T17:01:14;188.90;;;180.43;;
57643;SDS011;43474;46.510;6.686;2023-03-31T17:03:40;212.75;;;203.27;;
57643;SDS011;43474;46.510;6.686;2023-03-31T17:06:09;212.60;;;203.07;;
57643;SDS011;43474;46.510;6.686;2023-03-31T17:08:37;235.52;;;224.75;;
57643;SDS011;43474;46.510;6.686;2023-03-31T17:11:05;191.13;;;182.82;;
57643;SDS011;43474;46.510;6.686;2023-03-31T17:13:38;231.07;;;220.40;;
57643;SDS011;43474;46.510;6.686;2023-03-31T17:16:05;199.00;;;190.20;;